River John, Canada
Current Conditions -  °F | °C
As of 8:00 PM on Saturday 20 Dec 2014 (Local Time) from CYYG Reporting Station
Snow Showers Snow Showers  
Wind Chill: 21°   Ceiling: 2400
Heat Index: 30°   Visibility: 15mi
Dew Point: 23°   Wind: 10mph
Humidity: 75%   Direction: 50°NE
Pressure: 30.33"   Gusts: NA
Location:  45.73°N, 63.05°W
Report Text: CYYG 210000Z 05009KT 15SM -SHSN OVC024 M01/M05 A3033 RMK SC8 SLP274
Loading
Personal Weather Stations






























Interactive Weather Map New forecast layout! Learn more

10-Day Weather Forecast

Advertisements
Track Severe Weather on mobile